Etusivu
METAR-TAF:

METAR-TAF

Lentoasemat :

Djerba, Tunisia

Leveyspiiri: 33-52N, Pituuspiiri: 010-46E, korkeus merenpinnasta: 3 m

Tämänhetkinen sää

Tämä raportti tehtiin 12 minuuttia sitten, kello 20.00 UTC
Tuuli 5 kn idästä/kaakosta
Lämpötila 16°C
Kosteus 82%
Ilmanpaine 1023 hPa
Näkyvyys 10 km tai enemmän
ei pilviä alle 1500 m:ssä eikä cumulonimbus-pilviä

METAR: DTTJ 062000Z 11005KT CAVOK 16/13 Q1023 NOSIG

Aika: 21:12 (20:12 UTC)

Sääennuste

Tämä raportti tehtiin 3 tuntia ja 12 minuuttia sitten, kello 17.00 UTC
Ennuste voimassa 06. päivästä klo 18 UTC - 07. päivään klo 18 UTC
Tuuli 4 kn idästä/kaakosta
Näkyvyys 10 km tai enemmän
ei pilviä alle 1500 m:ssä eikä cumulonimbus-pilviä
Todennäköisyys 40%
07. päivästä klo 04 UTC - 07. päivään klo 06 UTC
Näkyvyys: 3000 m
utua

TAF: DTTJ 061700Z 0618/0718 11004KT CAVOK PROB40 0704/0706 3000 BR

Säähavainnot ja -ennusteet yli 4000 lentoasemalta (METAR- ja TAF-raportit).

Käytössä olevat sääasemat on merkitty karttaan keltaisilla ja punaisilla pisteillä.

Aseta hiiri pisteen päälle nähdäksesi sääaseman nimen.

Klikkaa sitten nähdäksesi säähavainnot ja -ennusteet.

Kartan vaihtaminen: klikkaa mustalla rastilla varustettuja vihreitä pisteitä, niin voit zoomata sisään; viivalla varustettua vihreää pistettä, niin voit zoomata ulos tai vihreitä nuolia, niin pääset viereisille kartoille.


METAR-TAF: